createdAt,value
2022-12-18T00:01:35.870Z,41.20
2022-12-18T00:06:35.652Z,32.65
2022-12-18T00:09:04.371Z,20.30
2022-12-18T00:11:32.831Z,33.90
2022-12-18T00:14:01.310Z,31.17
2022-12-18T00:16:31.067Z,40.08
2022-12-18T00:21:26.765Z,31.65
2022-12-18T00:23:54.763Z,41.97
2022-12-18T00:26:33.751Z,34.95
2022-12-18T00:29:14.891Z,35.08
2022-12-18T00:31:44.683Z,36.08
2022-12-18T00:34:13.804Z,29.83
2022-12-18T00:36:42.110Z,45.17
2022-12-18T00:39:11.754Z,41.25
2022-12-18T00:41:57.887Z,49.95
2022-12-18T00:44:26.390Z,33.45
2022-12-18T00:46:53.709Z,44.80
2022-12-18T00:49:21.683Z,40.55
2022-12-18T00:51:49.023Z,42.90
2022-12-18T00:54:17.181Z,48.55
2022-12-18T00:56:49.407Z,47.53
2022-12-18T00:59:18.664Z,29.40
2022-12-18T01:01:46.527Z,45.78
2022-12-18T01:04:15.003Z,31.58
2022-12-18T01:06:45.162Z,43.47
2022-12-18T01:09:12.552Z,42.25
2022-12-18T01:11:40.376Z,47.30
2022-12-18T01:14:07.785Z,41.65
2022-12-18T01:16:35.201Z,30.75
2022-12-18T01:19:05.664Z,48.03
2022-12-18T01:21:33.724Z,42.40
2022-12-18T01:24:05.382Z,35.58
2022-12-18T01:26:32.784Z,38.28
2022-12-18T01:29:00.393Z,48.97
2022-12-18T01:31:30.931Z,38.38
2022-12-18T01:34:01.016Z,45.67
2022-12-18T01:36:31.258Z,55.83
2022-12-18T01:39:02.060Z,46.50
2022-12-18T01:41:51.081Z,48.53
2022-12-18T01:44:49.372Z,42.37
2022-12-18T01:47:34.861Z,47.45
2022-12-18T01:50:08.429Z,46.17
2022-12-18T01:52:46.064Z,51.95
2022-12-18T01:55:16.117Z,55.35
2022-12-18T01:57:44.002Z,46.95
2022-12-18T02:00:16.986Z,52.67
2022-12-18T02:02:46.252Z,52.15
2022-12-18T02:05:18.941Z,48.92
2022-12-18T02:08:10.566Z,58.10
2022-12-18T02:10:48.567Z,51.30
2022-12-18T02:13:57.384Z,49.88
2022-12-18T02:16:36.848Z,50.47
2022-12-18T02:19:33.514Z,52.47
2022-12-18T02:22:42.943Z,47.90
2022-12-18T02:25:28.807Z,45.45
2022-12-18T02:28:01.460Z,55.33
2022-12-18T02:30:34.739Z,48.85
2022-12-18T02:33:05.050Z,52.47
2022-12-18T02:35:36.317Z,46.53
2022-12-18T02:38:05.390Z,52.53
2022-12-18T02:40:38.645Z,46.33
2022-12-18T02:46:30.205Z,42.70
2022-12-18T02:49:06.538Z,40.78
2022-12-18T02:51:46.110Z,51.85
2022-12-18T02:54:22.076Z,38.08
2022-12-18T02:56:56.798Z,46.90
2022-12-18T02:59:45.050Z,41.28
2022-12-18T03:02:16.176Z,45.72
2022-12-18T03:04:54.159Z,40.00
2022-12-18T03:07:28.811Z,44.28
2022-12-18T03:10:00.043Z,50.10
2022-12-18T03:12:35.670Z,31.25
2022-12-18T03:15:29.605Z,40.47
2022-12-18T03:18:14.582Z,36.88
2022-12-18T03:20:45.161Z,42.10
2022-12-18T03:23:26.321Z,51.47
2022-12-18T03:25:57.713Z,39.42
2022-12-18T03:28:31.520Z,48.47
2022-12-18T03:31:06.161Z,48.25
2022-12-18T03:33:41.214Z,47.88
2022-12-18T03:36:09.392Z,51.05
2022-12-18T03:38:36.882Z,50.67
2022-12-18T03:41:32.727Z,54.55
2022-12-18T03:44:24.955Z,47.03
2022-12-18T03:47:15.199Z,45.70
2022-12-18T03:49:54.934Z,51.45
2022-12-18T03:52:29.348Z,54.13
2022-12-18T03:55:00.558Z,46.33
2022-12-18T03:57:32.356Z,47.63
2022-12-18T04:00:06.046Z,50.42
2022-12-18T04:02:48.310Z,53.65
2022-12-18T04:05:25.655Z,51.88
2022-12-18T04:07:54.959Z,48.75
2022-12-18T04:12:51.917Z,49.88
2022-12-18T04:15:19.963Z,45.35
2022-12-18T04:17:51.113Z,56.22
2022-12-18T04:20:22.259Z,54.58
2022-12-18T04:22:49.593Z,54.97
2022-12-18T04:25:18.778Z,45.00
2022-12-18T04:28:05.426Z,51.55
2022-12-18T04:30:33.638Z,53.10
2022-12-18T04:33:01.030Z,52.90
2022-12-18T04:35:31.174Z,52.47
2022-12-18T04:37:58.543Z,55.45
2022-12-18T04:40:25.984Z,51.55
2022-12-18T04:42:53.511Z,55.17
2022-12-18T04:45:20.853Z,54.63
2022-12-18T04:47:48.133Z,53.90
2022-12-18T04:50:15.672Z,61.75
2022-12-18T04:52:43.006Z,54.88
2022-12-18T04:55:10.305Z,52.08
2022-12-18T04:57:37.685Z,53.40
2022-12-18T05:00:07.013Z,45.35
2022-12-18T05:02:34.429Z,60.45
2022-12-18T05:05:01.848Z,56.67
2022-12-18T05:07:29.108Z,60.95
2022-12-18T05:09:56.486Z,58.45
2022-12-18T05:12:24.815Z,60.95
2022-12-18T05:14:52.437Z,61.10
2022-12-18T05:17:19.733Z,60.83
2022-12-18T05:19:47.058Z,66.55
2022-12-18T05:22:14.486Z,57.20
2022-12-18T05:24:41.783Z,61.50
2022-12-18T05:27:09.067Z,69.15
2022-12-18T05:29:36.368Z,67.82
2022-12-18T05:32:03.803Z,67.35
2022-12-18T05:34:31.129Z,73.05
2022-12-18T05:36:58.441Z,71.07
2022-12-18T05:39:25.881Z,66.57
2022-12-18T05:41:53.152Z,75.18
2022-12-18T05:44:20.484Z,77.20
2022-12-18T05:46:47.851Z,75.90
2022-12-18T05:49:15.200Z,68.70
2022-12-18T05:51:42.520Z,73.60
2022-12-18T05:54:10.101Z,83.45
2022-12-18T05:56:37.598Z,76.32
2022-12-18T05:59:04.930Z,73.32
2022-12-18T06:01:32.304Z,70.28
2022-12-18T06:04:00.008Z,71.05
2022-12-18T06:06:28.735Z,68.15
2022-12-18T06:08:57.560Z,69.97
2022-12-18T06:11:27.475Z,69.93
2022-12-18T06:13:58.704Z,69.82
2022-12-18T06:16:28.138Z,65.75
2022-12-18T06:19:03.563Z,55.38
2022-12-18T06:21:31.993Z,78.38
2022-12-18T06:24:00.641Z,81.53
2022-12-18T06:26:28.683Z,78.00
2022-12-18T06:28:56.531Z,73.00
2022-12-18T06:31:24.209Z,75.32
2022-12-18T06:33:51.669Z,71.43
2022-12-18T06:36:19.289Z,68.25
2022-12-18T06:38:46.730Z,70.00
2022-12-18T06:41:19.998Z,70.07
2022-12-18T06:43:47.845Z,64.93
2022-12-18T06:46:15.293Z,75.00
2022-12-18T06:48:42.845Z,70.07
2022-12-18T06:51:10.116Z,74.70
2022-12-18T06:53:37.875Z,72.30
2022-12-18T06:56:10.409Z,66.75
2022-12-18T06:58:39.769Z,67.05
2022-12-18T07:01:09.575Z,68.33
2022-12-18T07:03:38.657Z,72.60
2022-12-18T07:06:07.062Z,64.53
2022-12-18T07:08:34.373Z,62.00
2022-12-18T07:11:04.795Z,62.63
2022-12-18T07:13:32.861Z,72.57
2022-12-18T07:16:16.007Z,71.03
2022-12-18T07:18:45.054Z,69.90
2022-12-18T07:21:16.463Z,71.63
2022-12-18T07:23:44.785Z,67.38
2022-12-18T07:26:13.629Z,64.18
2022-12-18T07:28:42.332Z,73.18
2022-12-18T07:31:16.047Z,56.67
2022-12-18T07:33:43.656Z,71.07
2022-12-18T07:36:11.703Z,70.38
2022-12-18T07:38:39.567Z,63.72
2022-12-18T07:41:15.072Z,66.72
2022-12-18T07:43:43.219Z,73.00
2022-12-18T07:46:13.450Z,64.70
2022-12-18T07:48:42.478Z,67.22
2022-12-18T07:53:39.281Z,67.40
2022-12-18T07:56:28.563Z,70.28
2022-12-18T07:58:57.086Z,67.53
2022-12-18T08:01:24.860Z,65.47
2022-12-18T08:03:52.708Z,77.70
2022-12-18T08:06:23.767Z,70.55
2022-12-18T08:08:55.805Z,63.35
2022-12-18T08:11:25.376Z,65.18
2022-12-18T08:13:53.385Z,68.93
2022-12-18T08:16:21.710Z,68.43
2022-12-18T08:18:49.729Z,47.50
2022-12-18T08:21:24.059Z,69.40
2022-12-18T08:23:56.378Z,65.60
2022-12-18T08:26:26.278Z,72.20
2022-12-18T08:31:22.743Z,54.95
2022-12-18T08:33:53.746Z,75.28
2022-12-18T08:36:23.149Z,60.65
2022-12-18T08:38:52.685Z,94.63
2022-12-18T08:41:20.507Z,58.00
2022-12-18T08:44:06.436Z,64.75
2022-12-18T08:46:37.320Z,76.35
2022-12-18T08:49:06.433Z,63.45
2022-12-18T08:51:34.538Z,94.30
2022-12-18T08:54:02.400Z,67.68
2022-12-18T08:56:31.044Z,103.38
2022-12-18T08:58:58.737Z,74.13
2022-12-18T09:01:27.708Z,68.07
2022-12-18T09:03:55.266Z,62.67
2022-12-18T09:06:25.805Z,64.40
2022-12-18T09:08:53.125Z,66.45
2022-12-18T09:11:25.875Z,58.75
2022-12-18T09:13:54.897Z,56.42
2022-12-18T09:16:28.789Z,64.17
2022-12-18T09:19:00.793Z,63.70
2022-12-18T09:21:35.969Z,67.87
2022-12-18T09:24:08.941Z,68.47
2022-12-18T09:26:38.073Z,61.85
2022-12-18T09:29:08.267Z,80.40
2022-12-18T09:31:36.230Z,72.68
2022-12-18T09:34:03.560Z,65.97
2022-12-18T09:36:33.724Z,73.75
2022-12-18T09:39:06.301Z,61.05
2022-12-18T09:41:55.779Z,60.30
2022-12-18T09:44:47.093Z,65.50
2022-12-18T09:47:14.442Z,61.10
2022-12-18T09:49:45.015Z,66.75
2022-12-18T09:52:34.471Z,64.55
2022-12-18T09:55:10.686Z,66.78
2022-12-18T09:57:46.244Z,60.15
2022-12-18T10:00:21.089Z,64.78
2022-12-18T10:02:50.042Z,66.80
2022-12-18T10:05:23.776Z,61.67
2022-12-18T10:07:56.339Z,64.75
2022-12-18T10:10:51.030Z,85.95
2022-12-18T10:13:22.687Z,55.30
2022-12-18T10:16:16.926Z,58.72
2022-12-18T10:19:11.575Z,58.58
2022-12-18T10:22:03.191Z,58.45
2022-12-18T10:24:36.487Z,57.70
2022-12-18T10:27:30.420Z,52.92
2022-12-18T10:29:58.776Z,54.88
2022-12-18T10:32:28.990Z,67.47
2022-12-18T10:35:00.842Z,52.75
2022-12-18T10:37:30.892Z,59.17
2022-12-18T10:40:19.931Z,54.30
2022-12-18T10:43:12.013Z,53.55
2022-12-18T10:48:19.362Z,50.40
2022-12-18T10:53:38.523Z,51.38
2022-12-18T10:56:07.808Z,57.05
2022-12-18T10:58:40.905Z,52.45
2022-12-18T11:01:11.711Z,57.08
2022-12-18T11:03:42.481Z,49.88
2022-12-18T11:06:18.998Z,59.47
2022-12-18T11:09:00.192Z,55.42
2022-12-18T11:11:28.189Z,55.95
2022-12-18T11:14:02.954Z,53.00
2022-12-18T11:16:57.898Z,51.83
2022-12-18T11:22:24.146Z,47.83
2022-12-18T11:28:01.553Z,48.15
2022-12-18T11:30:35.790Z,53.53
2022-12-18T11:33:23.184Z,50.80
2022-12-18T11:35:52.780Z,51.97
2022-12-18T11:38:40.353Z,46.53
2022-12-18T11:42:01.327Z,41.22
2022-12-18T11:44:42.093Z,50.53
2022-12-18T11:47:27.729Z,47.03
2022-12-18T11:50:00.517Z,48.03
2022-12-18T11:52:40.082Z,50.08
2022-12-18T11:55:30.028Z,43.08
2022-12-18T12:00:41.427Z,46.22
2022-12-18T12:03:08.881Z,41.85
2022-12-18T12:05:36.244Z,48.38
2022-12-18T12:08:54.093Z,48.08
2022-12-18T12:11:57.477Z,50.22
2022-12-18T12:14:24.703Z,46.17
2022-12-18T12:17:00.202Z,40.30
2022-12-18T12:19:35.778Z,41.95
2022-12-18T12:22:22.468Z,51.35
2022-12-18T12:25:02.884Z,50.42
2022-12-18T12:27:42.516Z,53.00
2022-12-18T12:30:21.627Z,48.78
2022-12-18T12:33:19.364Z,47.07
2022-12-18T12:36:15.947Z,46.78
2022-12-18T12:38:52.522Z,45.83
2022-12-18T12:41:47.063Z,46.85
2022-12-18T12:44:21.085Z,52.13
2022-12-18T12:46:50.350Z,44.97
2022-12-18T12:49:25.361Z,44.03
2022-12-18T12:52:13.494Z,43.80
2022-12-18T12:54:42.140Z,42.63
2022-12-18T12:57:13.341Z,38.33
2022-12-18T13:00:05.643Z,42.28
2022-12-18T13:02:51.459Z,38.17
2022-12-18T13:05:59.655Z,42.70
2022-12-18T13:08:33.329Z,37.13
2022-12-18T13:11:21.393Z,43.20
2022-12-18T13:13:54.019Z,41.42
2022-12-18T13:16:27.542Z,35.38
2022-12-18T13:19:00.072Z,35.65
2022-12-18T13:21:33.537Z,36.78
2022-12-18T13:24:36.235Z,33.63
2022-12-18T13:27:42.467Z,34.45
2022-12-18T13:30:34.569Z,39.35
2022-12-18T13:33:14.633Z,46.40
2022-12-18T13:35:54.485Z,37.33
2022-12-18T13:38:22.189Z,35.90
2022-12-18T13:40:49.529Z,35.03
2022-12-18T13:43:28.927Z,38.65
2022-12-18T13:46:07.762Z,38.75
2022-12-18T13:48:39.210Z,34.45
2022-12-18T13:51:11.216Z,41.35
2022-12-18T13:53:47.665Z,42.13
2022-12-18T13:56:23.813Z,44.78
2022-12-18T13:59:16.567Z,37.90
2022-12-18T14:01:49.581Z,41.53
2022-12-18T14:04:22.410Z,49.80
2022-12-18T14:06:53.659Z,63.17
2022-12-18T14:09:37.101Z,61.67
2022-12-18T14:12:25.386Z,66.60
2022-12-18T14:14:54.970Z,61.33
2022-12-18T14:17:24.416Z,51.00
2022-12-18T14:19:52.718Z,60.00
2022-12-18T14:22:30.832Z,67.93
2022-12-18T14:25:13.493Z,79.68
2022-12-18T14:27:46.553Z,78.03
2022-12-18T14:30:46.432Z,81.80
2022-12-18T14:33:16.334Z,75.65
2022-12-18T14:35:54.059Z,65.97
2022-12-18T14:38:22.301Z,62.35
2022-12-18T14:40:54.953Z,65.53
2022-12-18T14:43:23.150Z,72.97
2022-12-18T14:45:52.482Z,74.20
2022-12-18T14:48:23.400Z,77.65
2022-12-18T14:51:18.712Z,78.63
2022-12-18T14:53:56.168Z,86.53
2022-12-18T14:56:27.216Z,74.88
2022-12-18T14:59:03.365Z,90.40
2022-12-18T15:01:33.130Z,79.03
2022-12-18T15:04:02.510Z,74.10
2022-12-18T15:06:38.447Z,75.43
2022-12-18T15:09:22.869Z,79.88
2022-12-18T15:11:51.385Z,93.25
2022-12-18T15:14:37.890Z,87.65
2022-12-18T15:17:15.994Z,88.15
2022-12-18T15:19:45.818Z,91.72
2022-12-18T15:22:36.191Z,93.85
2022-12-18T15:25:23.450Z,93.50
2022-12-18T15:27:50.885Z,102.70
2022-12-18T15:30:21.113Z,111.95
2022-12-18T15:32:49.862Z,105.53
2022-12-18T15:35:23.508Z,91.03
2022-12-18T15:37:52.574Z,101.22
2022-12-18T15:40:22.625Z,103.60
2022-12-18T15:43:13.496Z,101.15
2022-12-18T15:45:40.989Z,89.30
2022-12-18T15:48:26.490Z,95.40
2022-12-18T15:50:57.796Z,97.00
2022-12-18T15:53:28.958Z,116.82
2022-12-18T15:56:14.808Z,121.00
2022-12-18T15:58:42.200Z,120.22
2022-12-18T16:01:11.431Z,115.53
2022-12-18T16:03:39.378Z,147.07
2022-12-18T16:06:07.292Z,157.80
2022-12-18T16:08:37.446Z,171.38
2022-12-18T16:11:07.107Z,157.30
2022-12-18T16:13:34.453Z,144.23
2022-12-18T16:16:02.169Z,130.32
2022-12-18T16:18:29.698Z,108.00
2022-12-18T16:20:57.001Z,116.93
2022-12-18T16:23:24.335Z,94.40
2022-12-18T16:25:52.630Z,152.75
2022-12-18T16:28:19.990Z,120.15
2022-12-18T16:30:47.326Z,88.10
2022-12-18T16:33:14.708Z,97.57
2022-12-18T16:35:42.017Z,99.00
2022-12-18T16:38:10.304Z,99.55
2022-12-18T16:40:58.876Z,115.75
2022-12-18T16:43:26.266Z,101.05
2022-12-18T16:45:53.566Z,109.10
2022-12-18T16:48:21.197Z,149.80
2022-12-18T16:50:48.472Z,113.93
2022-12-18T16:53:15.748Z,189.10
2022-12-18T16:55:43.076Z,179.88
2022-12-18T16:58:11.170Z,166.23
2022-12-18T17:00:39.191Z,147.55
2022-12-18T17:03:06.724Z,150.90
2022-12-18T17:05:35.222Z,164.35
2022-12-18T17:08:02.591Z,153.82
2022-12-18T17:10:29.916Z,138.90
2022-12-18T17:12:57.269Z,140.90
2022-12-18T17:15:24.530Z,140.32
2022-12-18T17:17:51.852Z,144.70
2022-12-18T17:20:19.199Z,114.65
2022-12-18T17:22:49.501Z,122.35
2022-12-18T17:25:17.298Z,143.30
2022-12-18T17:27:44.565Z,123.78
2022-12-18T17:30:12.291Z,140.38
2022-12-18T17:32:39.578Z,139.45
2022-12-18T17:35:07.650Z,134.48
2022-12-18T17:37:36.082Z,135.33
2022-12-18T17:40:03.861Z,126.00
2022-12-18T17:42:31.200Z,146.85
2022-12-18T17:44:58.459Z,138.05
2022-12-18T17:47:25.767Z,150.98
2022-12-18T17:49:53.168Z,138.25
2022-12-18T17:52:22.045Z,139.90
2022-12-18T17:54:49.429Z,158.75
2022-12-18T17:57:16.733Z,203.57
2022-12-18T17:59:44.114Z,160.43
2022-12-18T18:02:12.244Z,157.35
2022-12-18T18:04:39.745Z,139.85
2022-12-18T18:07:07.136Z,170.25
2022-12-18T18:09:34.560Z,172.63
2022-12-18T18:12:20.791Z,173.25
2022-12-18T18:14:48.164Z,166.10
2022-12-18T18:17:15.609Z,151.40
2022-12-18T18:19:44.163Z,136.95
2022-12-18T18:22:15.276Z,136.93
2022-12-18T18:24:43.737Z,127.63
2022-12-18T18:27:11.006Z,134.02
2022-12-18T18:29:38.601Z,126.30
2022-12-18T18:32:06.061Z,129.13
2022-12-18T18:34:33.601Z,127.43
2022-12-18T18:37:01.716Z,126.22
2022-12-18T18:39:29.993Z,123.53
2022-12-18T18:41:57.539Z,138.57
2022-12-18T18:44:26.100Z,147.75
2022-12-18T18:46:58.289Z,148.87
2022-12-18T18:49:27.874Z,207.90
2022-12-18T18:51:57.331Z,231.98
2022-12-18T18:54:26.117Z,154.90
2022-12-18T18:57:19.456Z,179.75
2022-12-18T18:59:41.353Z,172.40
2022-12-18T19:02:16.652Z,178.43
2022-12-18T19:04:46.056Z,179.18
2022-12-18T19:07:18.515Z,157.15
2022-12-18T19:10:03.950Z,161.18
2022-12-18T19:12:52.593Z,144.60
2022-12-18T19:15:22.215Z,136.35
2022-12-18T19:17:49.542Z,131.45
2022-12-18T19:20:17.579Z,135.07
2022-12-18T19:22:49.013Z,138.00
2022-12-18T19:25:29.942Z,336.45
2022-12-18T19:28:07.496Z,256.45
2022-12-18T19:30:40.922Z,181.43
2022-12-18T19:33:34.546Z,146.48
2022-12-18T19:35:55.853Z,142.48
2022-12-18T19:38:23.364Z,131.80
2022-12-18T19:40:50.812Z,166.13
2022-12-18T19:43:18.498Z,159.18
2022-12-18T19:45:45.865Z,145.82
2022-12-18T19:48:14.714Z,143.82
2022-12-18T19:50:42.422Z,147.93
2022-12-18T19:53:09.810Z,135.07
2022-12-18T19:55:42.325Z,139.73
2022-12-18T19:58:12.107Z,132.90
2022-12-18T20:00:39.615Z,153.00
2022-12-18T20:03:17.662Z,137.35
2022-12-18T20:05:50.727Z,129.77
2022-12-18T20:08:18.026Z,141.02
2022-12-18T20:10:49.019Z,130.07
2022-12-18T20:13:16.599Z,126.15
2022-12-18T20:15:45.513Z,112.68
2022-12-18T20:18:13.957Z,105.60
2022-12-18T20:20:45.052Z,129.45
2022-12-18T20:23:13.509Z,133.57
2022-12-18T20:25:40.863Z,250.85
2022-12-18T20:28:08.459Z,112.47
2022-12-18T20:30:35.841Z,115.75
2022-12-18T20:33:03.246Z,116.25
2022-12-18T20:35:32.391Z,101.00
2022-12-18T20:37:59.871Z,96.70
2022-12-18T20:40:28.553Z,142.90
2022-12-18T20:42:55.928Z,130.18
2022-12-18T20:45:23.654Z,106.57
2022-12-18T20:47:54.319Z,101.85
2022-12-18T20:50:21.636Z,109.60
2022-12-18T20:52:48.972Z,97.60
2022-12-18T20:55:16.460Z,90.88
2022-12-18T20:57:43.884Z,89.55
2022-12-18T21:00:12.368Z,92.53
2022-12-18T21:02:42.296Z,94.82
2022-12-18T21:05:09.662Z,103.85
2022-12-18T21:07:37.069Z,107.03
2022-12-18T21:10:05.663Z,137.15
2022-12-18T21:12:44.047Z,214.10
2022-12-18T21:15:28.547Z,125.53
2022-12-18T21:17:56.268Z,101.82
2022-12-18T21:20:25.990Z,96.90
2022-12-18T21:22:54.058Z,97.97
2022-12-18T21:25:24.631Z,92.13
2022-12-18T21:27:51.905Z,100.97
2022-12-18T21:30:19.457Z,97.07
2022-12-18T21:32:47.633Z,115.55
2022-12-18T21:35:15.518Z,98.80
2022-12-18T21:37:44.608Z,112.75
2022-12-18T21:40:13.370Z,117.22
2022-12-18T21:42:59.297Z,120.35
2022-12-18T21:45:26.833Z,134.65
2022-12-18T21:47:54.452Z,128.77
2022-12-18T21:50:21.733Z,128.63
2022-12-18T21:52:49.057Z,116.60
2022-12-18T21:55:16.512Z,110.40
2022-12-18T21:57:43.827Z,99.78
2022-12-18T22:00:18.299Z,101.97
2022-12-18T22:02:48.388Z,105.15
2022-12-18T22:05:30.741Z,102.63
2022-12-18T22:07:58.074Z,99.50
2022-12-18T22:10:25.471Z,98.97
2022-12-18T22:12:55.164Z,96.32
2022-12-18T22:15:22.545Z,103.10
2022-12-18T22:17:53.450Z,110.50
2022-12-18T22:20:29.843Z,93.88
2022-12-18T22:22:57.830Z,101.80
2022-12-18T22:25:25.174Z,113.03
2022-12-18T22:28:10.898Z,109.32
2022-12-18T22:30:38.492Z,99.00
2022-12-18T22:33:05.833Z,82.28
2022-12-18T22:35:33.282Z,82.00
2022-12-18T22:38:01.835Z,90.13
2022-12-18T22:40:29.597Z,99.22
2022-12-18T22:43:02.836Z,108.80
2022-12-18T22:45:30.192Z,105.97
2022-12-18T22:47:57.605Z,94.03
2022-12-18T22:50:24.928Z,90.47
2022-12-18T22:52:52.278Z,93.10
2022-12-18T22:55:19.943Z,91.88
2022-12-18T22:57:48.480Z,93.25
2022-12-18T23:00:24.330Z,97.82
2022-12-18T23:03:00.188Z,90.72
2022-12-18T23:05:29.982Z,148.13
2022-12-18T23:07:57.648Z,95.70
2022-12-18T23:10:25.019Z,120.63
2022-12-18T23:12:52.347Z,170.80
2022-12-18T23:15:19.871Z,438.98
2022-12-18T23:17:59.548Z,202.25
2022-12-18T23:20:27.723Z,202.85
2022-12-18T23:22:55.050Z,170.65
2022-12-18T23:25:22.401Z,188.80
2022-12-18T23:27:49.765Z,202.90
2022-12-18T23:30:17.125Z,213.10
2022-12-18T23:32:44.683Z,220.10
2022-12-18T23:35:15.586Z,221.60
2022-12-18T23:38:00.496Z,248.05
2022-12-18T23:40:29.842Z,198.50
2022-12-18T23:42:58.581Z,153.67
2022-12-18T23:45:25.955Z,117.40
2022-12-18T23:47:53.209Z,124.90
2022-12-18T23:50:22.095Z,100.30
2022-12-18T23:52:56.507Z,93.32
2022-12-18T23:55:28.250Z,158.73
2022-12-18T23:57:55.730Z,151.45
